createdAt,value
2023-05-23T00:03:11.233Z,8.23
2023-05-23T00:08:04.821Z,8.07
2023-05-23T00:12:58.927Z,8.57
2023-05-23T00:17:53.197Z,8.57
2023-05-23T00:22:48.382Z,8.77
2023-05-23T00:27:41.715Z,9.05
2023-05-23T00:32:35.686Z,8.68
2023-05-23T00:37:29.576Z,10.80
2023-05-23T00:42:24.335Z,9.18
2023-05-23T00:47:17.897Z,9.93
2023-05-23T00:52:12.209Z,9.35
2023-05-23T00:57:06.437Z,9.75
2023-05-23T01:02:02.722Z,9.40
2023-05-23T01:06:56.978Z,9.50
2023-05-23T01:12:05.057Z,11.23
2023-05-23T01:17:10.461Z,10.38
2023-05-23T01:22:20.401Z,8.60
2023-05-23T01:27:40.593Z,9.43
2023-05-23T01:32:34.409Z,8.77
2023-05-23T01:37:29.822Z,10.10
2023-05-23T01:42:23.295Z,10.88
2023-05-23T01:47:19.197Z,10.18
2023-05-23T01:52:13.418Z,9.18
2023-05-23T01:57:07.775Z,9.95
2023-05-23T02:02:01.422Z,9.70
2023-05-23T02:06:56.188Z,9.70
2023-05-23T02:11:49.614Z,9.85
2023-05-23T02:16:42.938Z,9.35
2023-05-23T02:21:36.364Z,10.18
2023-05-23T02:26:31.319Z,10.55
2023-05-23T02:31:24.661Z,11.07
2023-05-23T02:36:18.064Z,12.10
2023-05-23T02:41:11.532Z,10.60
2023-05-23T02:46:06.471Z,10.48
2023-05-23T02:50:59.936Z,10.43
2023-05-23T02:55:53.274Z,11.23
2023-05-23T03:00:46.631Z,11.18
2023-05-23T03:05:42.091Z,11.32
2023-05-23T03:10:35.844Z,11.15
2023-05-23T03:15:29.175Z,12.93
2023-05-23T03:20:22.583Z,11.32
2023-05-23T03:25:18.246Z,10.10
2023-05-23T03:30:12.820Z,10.65
2023-05-23T03:35:07.022Z,10.60
2023-05-23T03:40:00.420Z,11.77
2023-05-23T03:44:55.175Z,11.00
2023-05-23T03:49:48.491Z,11.05
2023-05-23T03:54:41.791Z,11.65
2023-05-23T03:59:35.212Z,12.73
2023-05-23T04:04:31.100Z,13.98
2023-05-23T04:09:24.502Z,12.32
2023-05-23T04:14:20.198Z,13.68
2023-05-23T04:19:13.529Z,14.82
2023-05-23T04:24:09.027Z,12.85
2023-05-23T04:29:02.351Z,14.27
2023-05-23T04:33:56.325Z,13.65
2023-05-23T04:38:50.059Z,17.05
2023-05-23T04:43:46.111Z,15.25
2023-05-23T04:48:39.397Z,12.35
2023-05-23T04:53:32.770Z,12.40
2023-05-23T04:58:26.522Z,15.27
2023-05-23T05:03:21.221Z,15.23
2023-05-23T05:08:14.802Z,14.68
2023-05-23T05:13:08.226Z,14.77
2023-05-23T05:18:01.693Z,14.60
2023-05-23T05:22:59.659Z,14.43
2023-05-23T05:27:52.965Z,16.08
2023-05-23T05:32:46.792Z,14.18
2023-05-23T05:37:40.123Z,14.23
2023-05-23T05:42:34.965Z,13.82
2023-05-23T05:47:28.761Z,13.02
2023-05-23T05:52:22.181Z,14.75
2023-05-23T05:57:15.668Z,18.65
2023-05-23T06:02:10.464Z,14.23
2023-05-23T06:07:03.846Z,19.48
2023-05-23T06:11:57.184Z,16.27
2023-05-23T06:16:50.567Z,20.52
2023-05-23T06:21:45.245Z,16.05
2023-05-23T06:26:38.946Z,17.70
2023-05-23T06:31:34.476Z,16.15
2023-05-23T06:36:27.867Z,16.27
2023-05-23T06:41:22.757Z,17.17
2023-05-23T06:46:16.226Z,16.30
2023-05-23T06:51:10.618Z,17.33
2023-05-23T06:56:06.721Z,17.02
2023-05-23T07:01:01.585Z,15.55
2023-05-23T07:05:55.062Z,17.58
2023-05-23T07:10:48.754Z,18.35
2023-05-23T07:15:42.084Z,20.80
2023-05-23T07:20:36.758Z,19.98
2023-05-23T07:25:30.064Z,20.70
2023-05-23T07:30:23.867Z,23.08
2023-05-23T07:35:17.903Z,19.33
2023-05-23T07:40:13.379Z,21.88
2023-05-23T07:45:08.045Z,22.88
2023-05-23T07:50:02.500Z,21.88
2023-05-23T07:54:56.360Z,23.13
2023-05-23T07:59:51.256Z,20.35
2023-05-23T08:04:45.350Z,20.17
2023-05-23T08:09:39.291Z,19.50
2023-05-23T08:14:49.112Z,22.88
2023-05-23T08:19:45.117Z,20.65
2023-05-23T08:24:38.478Z,22.55
2023-05-23T08:29:31.797Z,22.73
2023-05-23T08:34:25.111Z,23.70
2023-05-23T08:39:20.131Z,21.85
2023-05-23T08:44:14.438Z,25.40
2023-05-23T08:49:08.945Z,22.65
2023-05-23T08:54:03.637Z,26.55
2023-05-23T08:58:59.470Z,25.75
2023-05-23T09:03:53.220Z,29.70
2023-05-23T09:08:46.857Z,23.85
2023-05-23T09:13:41.899Z,27.52
2023-05-23T09:18:41.087Z,22.95
2023-05-23T09:23:35.824Z,29.25
2023-05-23T09:28:29.152Z,24.98
2023-05-23T09:33:22.497Z,28.80
2023-05-23T09:38:17.378Z,29.08
2023-05-23T09:43:11.056Z,24.80
2023-05-23T09:48:04.531Z,22.92
2023-05-23T09:52:58.138Z,24.13
2023-05-23T09:57:56.781Z,25.42
2023-05-23T10:02:59.986Z,26.48
2023-05-23T10:07:53.681Z,20.70
2023-05-23T10:12:55.555Z,22.27
2023-05-23T10:18:08.605Z,24.48
2023-05-23T10:23:05.216Z,24.50
2023-05-23T10:28:04.298Z,21.38
2023-05-23T10:33:00.112Z,22.30
2023-05-23T10:38:03.521Z,21.65
2023-05-23T10:43:07.250Z,21.00
2023-05-23T10:48:01.942Z,21.27
2023-05-23T10:52:55.285Z,19.98
2023-05-23T10:58:08.691Z,21.85
2023-05-23T11:03:09.302Z,21.27
2023-05-23T11:08:10.786Z,18.88
2023-05-23T11:13:11.027Z,18.58
2023-05-23T11:18:08.370Z,22.83
2023-05-23T11:23:09.225Z,16.52
2023-05-23T11:28:06.237Z,15.75
2023-05-23T11:32:59.631Z,12.95
2023-05-23T11:37:54.564Z,14.00
2023-05-23T11:42:47.980Z,14.75
2023-05-23T11:47:42.788Z,14.70
2023-05-23T11:52:36.261Z,12.60
2023-05-23T11:57:31.610Z,12.75
2023-05-23T12:02:29.568Z,12.10
2023-05-23T12:07:23.075Z,13.52
2023-05-23T12:12:16.791Z,13.35
2023-05-23T12:17:13.838Z,13.90
2023-05-23T12:22:09.273Z,13.48
2023-05-23T12:27:05.023Z,12.98
2023-05-23T12:32:01.166Z,13.15
2023-05-23T12:37:15.018Z,16.17
2023-05-23T12:42:12.957Z,13.98
2023-05-23T12:47:06.967Z,15.40
2023-05-23T12:52:01.704Z,16.00
2023-05-23T12:56:55.013Z,14.98
2023-05-23T13:01:48.411Z,15.93
2023-05-23T13:06:41.767Z,18.30
2023-05-23T13:11:36.535Z,19.27
2023-05-23T13:16:29.976Z,20.02
2023-05-23T13:21:23.847Z,15.93
2023-05-23T13:26:17.373Z,15.45
2023-05-23T13:31:12.135Z,16.00
2023-05-23T13:36:06.052Z,15.35
2023-05-23T13:40:59.581Z,19.85
2023-05-23T13:45:52.937Z,19.42
2023-05-23T13:50:47.754Z,21.60
2023-05-23T13:55:41.308Z,22.38
2023-05-23T14:00:34.677Z,23.10
2023-05-23T14:05:28.075Z,22.08
2023-05-23T14:10:23.505Z,23.02
2023-05-23T14:15:18.336Z,24.17
2023-05-23T14:20:12.939Z,24.95
2023-05-23T14:25:07.515Z,25.40
2023-05-23T14:30:02.424Z,25.25
2023-05-23T14:34:56.011Z,25.13
2023-05-23T14:39:49.433Z,27.30
2023-05-23T14:44:42.770Z,24.70
2023-05-23T14:49:37.657Z,26.58
2023-05-23T14:54:30.992Z,28.98
2023-05-23T14:59:24.489Z,27.00
2023-05-23T15:04:18.023Z,30.38
2023-05-23T15:09:12.864Z,25.40
2023-05-23T15:14:06.369Z,25.15
2023-05-23T15:19:00.314Z,25.98
2023-05-23T15:23:53.717Z,24.17
2023-05-23T15:28:49.012Z,21.65
2023-05-23T15:33:42.490Z,22.42
2023-05-23T15:38:35.814Z,21.88
2023-05-23T15:43:29.298Z,22.10
2023-05-23T15:48:24.126Z,24.00
2023-05-23T15:53:17.485Z,25.27
2023-05-23T15:58:11.308Z,23.40
2023-05-23T16:03:04.850Z,21.13
2023-05-23T16:07:59.676Z,21.52
2023-05-23T16:12:53.319Z,24.00
2023-05-23T16:17:46.756Z,22.35
2023-05-23T16:22:40.105Z,23.55
2023-05-23T16:27:35.014Z,21.27
2023-05-23T16:32:29.932Z,21.25
2023-05-23T16:37:23.502Z,21.80
2023-05-23T16:42:17.878Z,20.85
2023-05-23T16:47:12.667Z,21.05
2023-05-23T16:52:06.500Z,21.42
2023-05-23T16:57:01.834Z,18.33
2023-05-23T17:01:55.539Z,16.38
2023-05-23T17:06:50.326Z,13.70
2023-05-23T17:11:43.662Z,14.00
2023-05-23T17:16:37.067Z,13.25
2023-05-23T17:21:31.391Z,13.57
2023-05-23T17:26:27.589Z,11.48
2023-05-23T17:31:21.549Z,11.57
2023-05-23T17:36:15.057Z,11.52
2023-05-23T17:41:08.903Z,10.43
2023-05-23T17:46:03.723Z,10.80
2023-05-23T17:50:57.249Z,10.73
2023-05-23T17:55:50.867Z,9.77
2023-05-23T18:00:44.467Z,8.25
2023-05-23T18:05:39.592Z,7.82
2023-05-23T18:10:32.929Z,8.52
2023-05-23T18:15:26.672Z,7.95
2023-05-23T18:20:19.999Z,8.07
2023-05-23T18:25:19.412Z,8.55
2023-05-23T18:30:13.331Z,6.93
2023-05-23T18:35:10.510Z,7.10
2023-05-23T18:40:03.866Z,8.55
2023-05-23T18:44:58.601Z,6.45
2023-05-23T18:50:03.649Z,6.80
2023-05-23T18:54:57.379Z,6.40
2023-05-23T18:59:51.992Z,7.63
2023-05-23T19:04:46.825Z,6.15
2023-05-23T19:09:40.208Z,6.45
2023-05-23T19:14:33.580Z,5.95
2023-05-23T19:19:30.026Z,6.60
2023-05-23T19:24:33.826Z,6.72
2023-05-23T19:29:27.675Z,8.52
2023-05-23T19:34:21.135Z,6.85
2023-05-23T19:39:15.120Z,6.45
2023-05-23T19:44:11.858Z,6.75
2023-05-23T19:49:05.227Z,7.63
2023-05-23T19:53:58.708Z,6.65
2023-05-23T19:58:52.056Z,6.50
2023-05-23T20:03:47.017Z,5.60
2023-05-23T20:08:40.393Z,5.88
2023-05-23T20:13:33.812Z,6.28
2023-05-23T20:18:27.776Z,5.80
2023-05-23T20:23:23.025Z,5.65
2023-05-23T20:28:16.520Z,5.85
2023-05-23T20:33:09.904Z,6.60
2023-05-23T20:38:03.236Z,6.00
2023-05-23T20:43:04.493Z,6.00
2023-05-23T20:47:58.536Z,5.40
2023-05-23T20:52:52.136Z,7.35
2023-05-23T20:57:45.777Z,5.20
2023-05-23T21:02:41.369Z,5.53
2023-05-23T21:07:35.289Z,5.57
2023-05-23T21:12:28.757Z,6.93
2023-05-23T21:17:22.173Z,5.80
2023-05-23T21:22:17.035Z,5.93
2023-05-23T21:27:10.540Z,5.40
2023-05-23T21:32:04.035Z,6.65
2023-05-23T21:36:57.310Z,5.50
2023-05-23T21:41:52.139Z,7.43
2023-05-23T21:46:45.737Z,8.27
2023-05-23T21:51:39.223Z,7.85
2023-05-23T21:56:32.588Z,7.80
2023-05-23T22:01:27.331Z,9.80
2023-05-23T22:06:20.728Z,9.80
2023-05-23T22:11:14.108Z,9.95
2023-05-23T22:16:07.859Z,8.30
2023-05-23T22:21:02.922Z,8.20
2023-05-23T22:25:56.696Z,8.38
2023-05-23T22:30:50.000Z,8.48
2023-05-23T22:35:43.992Z,11.05
2023-05-23T22:40:39.160Z,8.43
2023-05-23T22:45:40.195Z,9.30
2023-05-23T22:50:34.077Z,9.48
2023-05-23T22:55:27.515Z,10.25
2023-05-23T23:00:22.857Z,9.25
2023-05-23T23:05:16.248Z,8.82
2023-05-23T23:10:10.929Z,8.40
2023-05-23T23:15:04.643Z,8.45
2023-05-23T23:19:59.404Z,8.38
2023-05-23T23:24:53.702Z,8.40
2023-05-23T23:29:47.256Z,8.68
2023-05-23T23:34:41.292Z,7.57
2023-05-23T23:39:36.040Z,7.32
2023-05-23T23:44:29.330Z,9.45
2023-05-23T23:49:22.617Z,7.57
2023-05-23T23:54:16.252Z,7.80
2023-05-23T23:59:11.345Z,8.50
